Time;durP1;ratioP1;P1;durP2;ratioP2;P2;SDS_P1;SDS_P2;PMS_P1;PMS_P2;Temp;Humidity;BMP_temperature;BMP_pressure;BME280_temperature;BME280_humidity;BME280_pressure;Samples;Min_cycle;Max_cycle;Signal;HPM_P1;HPM_P2
2021/10/13 00:00:07;;;;;;;18.17;11.47;;;10.50;99.90;;;;;;5017296;28;20506;-79
2021/10/13 00:02:34;;;;;;;13.93;9.90;;;10.40;99.90;;;;;;5017048;28;20464;-78
2021/10/13 00:05:03;;;;;;;16.83;10.90;;;10.30;99.90;;;;;;5016781;28;20469;-78
2021/10/13 00:07:30;;;;;;;13.40;10.80;;;10.30;99.90;;;;;;5017867;28;20496;-79
2021/10/13 00:09:57;;;;;;;14.67;10.23;;;10.20;99.90;;;;;;5018326;28;20491;-79
2021/10/13 00:12:24;;;;;;;13.50;10.43;;;10.40;99.90;;;;;;5017347;28;20479;-79
2021/10/13 00:14:51;;;;;;;11.67;9.20;;;10.30;99.90;;;;;;5016625;28;20469;-79
2021/10/13 00:17:18;;;;;;;10.90;8.47;;;10.30;99.90;;;;;;5022984;28;20453;-78
2021/10/13 00:19:45;;;;;;;11.13;9.53;;;10.40;99.90;;;;;;5017103;28;20946;-79
2021/10/13 00:22:13;;;;;;;13.07;9.83;;;10.40;99.90;;;;;;5016741;28;20457;-78
2021/10/13 00:24:40;;;;;;;14.00;9.60;;;10.10;99.90;;;;;;5016457;28;20489;-78
2021/10/13 00:27:07;;;;;;;14.40;10.53;;;10.10;99.90;;;;;;5016780;28;20472;-78
2021/10/13 00:29:36;;;;;;;12.93;9.67;;;10.30;99.90;;;;;;5016553;28;20484;-78
2021/10/13 00:32:04;;;;;;;15.30;10.43;;;10.30;99.90;;;;;;5016760;28;20454;-79
2021/10/13 00:34:31;;;;;;;14.83;10.70;;;10.00;99.90;;;;;;5016588;28;20905;-79
2021/10/13 00:36:58;;;;;;;18.63;11.67;;;9.90;99.90;;;;;;5016466;28;20453;-79
2021/10/13 00:39:26;;;;;;;16.83;12.17;;;9.90;99.90;;;;;;5016652;28;20549;-79
2021/10/13 00:41:53;;;;;;;15.53;10.33;;;9.80;99.90;;;;;;5015574;28;20463;-78
2021/10/13 00:44:20;;;;;;;17.07;12.10;;;9.90;99.90;;;;;;5016243;28;20839;-78
2021/10/13 00:46:46;;;;;;;15.13;10.80;;;9.90;99.90;;;;;;5017015;28;20457;-79
2021/10/13 00:49:13;;;;;;;15.27;10.07;;;10.00;99.90;;;;;;5016656;28;20851;-78
2021/10/13 00:51:40;;;;;;;14.53;10.50;;;10.00;99.90;;;;;;5017651;28;20550;-78
2021/10/13 00:54:09;;;;;;;16.53;11.70;;;10.10;99.90;;;;;;5018353;28;20830;-78
2021/10/13 00:56:37;;;;;;;17.33;11.40;;;10.00;99.90;;;;;;5016516;28;20440;-78
2021/10/13 00:59:04;;;;;;;17.53;11.27;;;10.00;99.90;;;;;;5016177;28;20454;-79
2021/10/13 01:01:33;;;;;;;15.40;11.00;;;10.00;99.90;;;;;;5015827;28;20468;-78
2021/10/13 01:04:14;;;;;;;13.07;9.57;;;9.80;99.90;;;;;;5016356;28;20469;-78
2021/10/13 01:06:47;;;;;;;13.60;8.93;;;9.90;99.90;;;;;;5016256;28;20441;-78
2021/10/13 01:09:19;;;;;;;12.77;9.40;;;10.10;99.90;;;;;;5016443;28;20488;-78
2021/10/13 01:11:58;;;;;;;14.07;10.40;;;10.00;99.90;;;;;;5027536;28;20433;-77
2021/10/13 01:14:37;;;;;;;16.40;9.10;;;10.00;99.90;;;;;;5022455;28;20455;-78
2021/10/13 01:17:13;;;;;;;14.37;10.47;;;10.10;99.90;;;;;;5025611;28;20440;-78
2021/10/13 01:19:53;;;;;;;13.30;10.57;;;10.00;99.90;;;;;;5024044;28;20453;-78
2021/10/13 01:22:45;;;;;;;12.73;9.10;;;9.90;99.90;;;;;;5022671;28;20437;-78
2021/10/13 01:25:28;;;;;;;13.53;8.50;;;10.10;99.90;;;;;;5026245;28;20476;-78
2021/10/13 01:28:00;;;;;;;15.80;9.30;;;10.20;99.90;;;;;;5015380;28;20449;-77
2021/10/13 01:30:33;;;;;;;13.87;10.20;;;10.10;99.90;;;;;;5019355;28;20478;-77
2021/10/13 01:33:03;;;;;;;14.57;9.60;;;10.00;99.90;;;;;;5026174;28;20500;-78
2021/10/13 01:35:33;;;;;;;12.50;8.47;;;10.00;99.90;;;;;;5026708;28;20467;-78
2021/10/13 01:38:05;;;;;;;15.00;8.90;;;10.00;99.90;;;;;;5021516;28;20874;-78
2021/10/13 01:40:33;;;;;;;17.60;10.40;;;10.10;99.90;;;;;;5016259;28;20422;-78
2021/10/13 01:43:04;;;;;;;13.53;7.70;;;10.10;99.90;;;;;;5020730;28;20448;-78
2021/10/13 01:45:31;;;;;;;10.95;7.95;;;10.10;99.90;;;;;;5015279;28;20481;-78
2021/10/13 01:47:59;;;;;;;10.00;6.20;;;10.00;99.90;;;;;;5014921;28;20597;-79
2021/10/13 01:50:26;;;;;;;11.67;7.50;;;10.00;99.90;;;;;;5015622;28;20464;-78
2021/10/13 01:52:55;;;;;;;9.63;6.50;;;10.00;99.90;;;;;;5015323;28;20509;-78
2021/10/13 01:55:26;;;;;;;13.53;7.43;;;9.90;99.90;;;;;;5015658;28;20789;-78
2021/10/13 01:57:56;;;;;;;9.80;6.37;;;10.00;99.90;;;;;;5015485;28;20851;-78
2021/10/13 02:00:25;;;;;;;8.73;6.00;;;9.90;99.90;;;;;;5015822;28;20411;-78
2021/10/13 02:02:54;;;;;;;10.07;6.63;;;9.90;99.90;;;;;;5013956;28;20430;-77
2021/10/13 02:05:23;;;;;;;13.60;8.20;;;9.90;99.90;;;;;;5016546;28;20463;-78
2021/10/13 02:07:51;;;;;;;15.03;6.90;;;9.90;99.90;;;;;;5019520;28;20524;-78
2021/10/13 02:10:21;;;;;;;14.47;7.50;;;9.80;99.90;;;;;;5020251;28;20463;-77
2021/10/13 02:12:50;;;;;;;11.60;8.40;;;9.80;99.90;;;;;;5023963;28;20427;-78
2021/10/13 02:15:18;;;;;;;11.70;8.77;;;9.80;99.90;;;;;;5017624;28;20489;-78
2021/10/13 02:17:50;;;;;;;16.73;9.43;;;9.80;99.90;;;;;;5018819;28;20457;-77
2021/10/13 02:20:18;;;;;;;13.63;9.50;;;9.80;99.90;;;;;;5026113;28;20438;-79
2021/10/13 02:23:00;;;;;;;15.43;8.70;;;9.60;99.90;;;;;;5019626;28;20457;-78
2021/10/13 02:25:32;;;;;;;10.10;7.10;;;9.70;99.90;;;;;;5033206;23;20480;-81
2021/10/13 02:28:04;;;;;;;12.63;8.00;;;9.90;99.90;;;;;;5021202;28;20439;-79
2021/10/13 02:30:33;;;;;;;13.87;7.50;;;9.80;99.90;;;;;;5021843;28;20850;-81
2021/10/13 02:33:01;;;;;;;11.95;8.48;;;9.80;99.90;;;;;;5021916;28;20476;-80
2021/10/13 02:35:28;;;;;;;11.23;8.15;;;9.70;99.90;;;;;;5022685;28;20767;-80
2021/10/13 02:37:55;;;;;;;13.10;9.17;;;9.60;99.90;;;;;;5022336;28;20296;-80
2021/10/13 02:40:22;;;;;;;12.00;9.20;;;9.60;99.90;;;;;;5022746;28;20453;-80
2021/10/13 02:42:52;;;;;;;14.77;8.50;;;9.60;99.90;;;;;;5021017;28;20467;-79
2021/10/13 02:45:19;;;;;;;11.83;8.67;;;9.80;99.90;;;;;;5020224;28;20869;-81
2021/10/13 02:47:52;;;;;;;12.90;9.50;;;10.00;99.90;;;;;;5028839;28;20457;-81
2021/10/13 02:50:25;;;;;;;15.17;9.37;;;9.90;99.90;;;;;;5023867;28;20533;-81
2021/10/13 02:53:00;;;;;;;9.10;7.10;;;10.10;99.90;;;;;;5021531;28;20889;-81
2021/10/13 02:55:32;;;;;;;12.70;8.13;;;10.20;99.90;;;;;;5022343;28;20479;-81
2021/10/13 02:58:06;;;;;;;11.80;8.43;;;10.10;99.90;;;;;;5033638;28;20464;-80
2021/10/13 03:00:34;;;;;;;10.57;7.70;;;9.90;99.90;;;;;;5023485;28;20455;-80
2021/10/13 03:03:04;;;;;;;12.27;7.03;;;10.20;99.90;;;;;;5020277;28;20857;-80
2021/10/13 03:05:36;;;;;;;14.33;8.87;;;10.20;99.90;;;;;;5021108;28;20475;-80
2021/10/13 03:08:06;;;;;;;13.80;8.70;;;10.00;99.90;;;;;;5020708;28;20787;-80
2021/10/13 03:10:34;;;;;;;11.50;7.87;;;9.90;99.90;;;;;;5022026;28;20456;-80
2021/10/13 03:13:03;;;;;;;10.20;7.40;;;10.10;99.90;;;;;;5021667;28;20765;-80
2021/10/13 03:15:31;;;;;;;11.47;8.67;;;10.00;99.90;;;;;;5022408;28;20512;-80
2021/10/13 03:17:59;;;;;;;11.03;7.90;;;9.90;99.90;;;;;;5022389;28;20878;-80
2021/10/13 03:20:28;;;;;;;11.27;8.20;;;9.90;99.90;;;;;;5022488;28;20449;-80
2021/10/13 03:22:59;;;;;;;10.40;8.23;;;10.00;99.90;;;;;;5019051;28;20957;-80
2021/10/13 03:25:28;;;;;;;12.27;8.50;;;10.00;99.90;;;;;;5019918;28;20588;-80
2021/10/13 03:27:55;;;;;;;11.10;8.07;;;10.20;99.90;;;;;;5025329;28;20442;-80
2021/10/13 03:30:22;;;;;;;13.60;8.33;;;10.20;99.90;;;;;;5021442;28;20455;-79
2021/10/13 03:32:49;;;;;;;14.00;9.57;;;10.00;99.90;;;;;;5020539;28;20460;-80
2021/10/13 03:35:24;;;;;;;19.03;9.50;;;9.90;99.90;;;;;;5018627;28;20473;-79
2021/10/13 03:37:51;;;;;;;14.20;8.77;;;9.80;99.90;;;;;;5019571;28;20459;-80
2021/10/13 03:40:20;;;;;;;14.87;9.00;;;9.90;99.90;;;;;;5018999;28;20512;-80
2021/10/13 03:42:47;;;;;;;14.23;9.07;;;10.10;99.90;;;;;;5027302;28;20456;-79
2021/10/13 03:45:14;;;;;;;13.40;9.00;;;10.10;99.90;;;;;;5034045;28;20511;-79
2021/10/13 03:47:41;;;;;;;14.93;9.10;;;9.90;99.90;;;;;;5019645;28;20458;-80
2021/10/13 03:50:10;;;;;;;13.70;9.00;;;9.80;99.90;;;;;;5020757;28;20478;-81
2021/10/13 03:52:37;;;;;;;13.30;8.27;;;9.90;99.90;;;;;;5025187;28;20449;-79
2021/10/13 03:55:05;;;;;;;12.70;9.20;;;10.00;99.90;;;;;;5033314;28;20480;-81
2021/10/13 03:57:33;;;;;;;13.63;9.17;;;10.00;99.90;;;;;;5029259;28;20452;-80
2021/10/13 04:00:00;;;;;;;11.47;8.00;;;10.00;99.90;;;;;;5021113;28;20494;-80
2021/10/13 04:02:27;;;;;;;13.30;7.60;;;10.00;99.90;;;;;;5019720;28;20460;-79
2021/10/13 04:04:54;;;;;;;14.60;8.80;;;9.90;99.90;;;;;;5023079;28;20499;-81
2021/10/13 04:07:20;;;;;;;17.33;8.57;;;9.90;99.90;;;;;;5027236;28;20544;-79
2021/10/13 04:09:47;;;;;;;13.40;8.50;;;9.90;99.90;;;;;;5025009;28;20464;-82
2021/10/13 04:12:14;;;;;;;12.50;7.20;;;9.80;99.90;;;;;;5021008;28;20435;-80
2021/10/13 04:14:43;;;;;;;13.53;8.83;;;9.90;99.90;;;;;;5020076;28;20460;-81
2021/10/13 04:17:09;;;;;;;14.27;8.07;;;10.00;99.90;;;;;;5027661;28;20465;-81
2021/10/13 04:19:36;;;;;;;12.27;7.83;;;9.90;99.90;;;;;;5022866;28;20453;-81
2021/10/13 04:22:04;;;;;;;10.50;7.70;;;9.70;99.90;;;;;;5023712;28;20455;-81
2021/10/13 04:24:30;;;;;;;26.30;8.87;;;9.60;99.90;;;;;;5025846;28;20491;-80
2021/10/13 04:26:57;;;;;;;16.30;9.77;;;9.80;99.90;;;;;;5022083;28;21000;-80
2021/10/13 04:29:24;;;;;;;13.38;9.75;;;9.70;99.90;;;;;;5018450;28;21004;-81
2021/10/13 04:31:52;;;;;;;15.15;8.88;;;9.70;99.90;;;;;;5032428;28;20212;-81
2021/10/13 04:34:19;;;;;;;12.40;7.90;;;9.60;99.90;;;;;;5020655;28;20733;-81
2021/10/13 04:36:46;;;;;;;15.40;10.05;;;9.70;99.90;;;;;;5019546;28;20485;-81
2021/10/13 04:39:13;;;;;;;14.27;9.60;;;9.70;99.90;;;;;;5018025;28;20206;-81
2021/10/13 04:41:40;;;;;;;12.18;8.57;;;9.40;99.90;;;;;;5018198;28;20685;-81
2021/10/13 04:44:07;;;;;;;15.73;10.40;;;9.30;99.90;;;;;;5018077;28;20236;-81
2021/10/13 04:46:34;;;;;;;13.40;10.00;;;9.30;99.90;;;;;;5019101;28;20814;-79
2021/10/13 04:49:02;;;;;;;17.15;10.30;;;9.40;99.90;;;;;;5018430;28;20568;-80
2021/10/13 04:51:29;;;;;;;12.57;8.00;;;9.40;99.90;;;;;;5019333;28;20643;-80
2021/10/13 04:53:55;;;;;;;17.00;10.40;;;9.40;99.90;;;;;;5017793;28;20449;-79
2021/10/13 04:56:22;;;;;;;14.60;9.52;;;9.40;99.90;;;;;;5019768;28;20500;-80
2021/10/13 04:58:49;;;;;;;17.70;10.40;;;9.50;99.90;;;;;;5017960;28;20678;-80
2021/10/13 05:01:16;;;;;;;18.07;10.20;;;9.70;99.90;;;;;;5017877;28;20438;-81
2021/10/13 05:03:43;;;;;;;16.90;9.87;;;9.70;99.90;;;;;;5017264;28;20565;-81
2021/10/13 05:06:11;;;;;;;14.33;9.10;;;9.60;99.90;;;;;;5017222;28;20964;-81
2021/10/13 05:08:38;;;;;;;16.23;10.10;;;9.50;99.90;;;;;;5017871;28;20462;-81
2021/10/13 05:11:05;;;;;;;15.20;9.53;;;9.70;99.90;;;;;;5017999;28;20476;-80
2021/10/13 05:13:31;;;;;;;14.20;9.43;;;9.70;99.90;;;;;;5017833;28;20459;-82
2021/10/13 05:15:58;;;;;;;16.10;10.03;;;9.80;99.90;;;;;;5018415;28;20537;-80
2021/10/13 05:18:25;;;;;;;13.20;9.03;;;9.80;99.90;;;;;;5028991;28;20461;-78
2021/10/13 05:20:52;;;;;;;14.33;8.60;;;9.50;99.90;;;;;;5029422;28;20501;-81
2021/10/13 05:23:20;;;;;;;12.05;8.80;;;9.40;99.90;;;;;;5024197;28;20436;-79
2021/10/13 05:25:47;;;;;;;12.80;8.43;;;9.30;99.90;;;;;;5024042;28;20781;-81
2021/10/13 05:28:14;;;;;;;13.90;9.13;;;9.30;99.90;;;;;;5022565;28;20459;-80
2021/10/13 05:30:41;;;;;;;18.63;8.30;;;9.60;99.90;;;;;;5019127;28;20508;-80
2021/10/13 05:33:08;;;;;;;13.45;7.18;;;9.80;99.90;;;;;;5017819;28;20949;-81
2021/10/13 05:35:35;;;;;;;18.07;9.10;;;9.90;99.90;;;;;;5017617;28;20325;-80
2021/10/13 05:38:02;;;;;;;13.05;8.45;;;9.80;99.90;;;;;;5018143;28;20460;-80
2021/10/13 05:40:30;;;;;;;10.10;7.00;;;9.60;99.90;;;;;;5017899;28;20297;-80
2021/10/13 05:42:57;;;;;;;11.57;7.47;;;9.70;99.90;;;;;;5024017;28;20934;-80
2021/10/13 05:45:24;;;;;;;13.70;7.85;;;9.60;99.90;;;;;;5037881;28;20475;-81
2021/10/13 05:47:50;;;;;;;15.37;8.97;;;9.60;99.90;;;;;;5025556;28;20301;-81
2021/10/13 05:50:17;;;;;;;11.40;8.10;;;9.50;99.90;;;;;;5022832;28;20503;-79
2021/10/13 05:52:44;;;;;;;13.67;8.57;;;9.50;99.90;;;;;;5022535;28;20464;-79
2021/10/13 05:55:11;;;;;;;12.80;8.00;;;9.40;99.90;;;;;;5021391;28;20472;-79
2021/10/13 05:57:40;;;;;;;13.13;8.30;;;9.50;99.90;;;;;;5021143;28;20520;-80
2021/10/13 06:00:08;;;;;;;12.75;8.18;;;9.50;99.90;;;;;;5020792;28;20429;-79
2021/10/13 06:02:35;;;;;;;13.20;10.03;;;9.50;99.90;;;;;;5020942;28;20209;-81
2021/10/13 06:05:02;;;;;;;14.13;8.77;;;9.50;99.90;;;;;;5020502;28;20480;-78
2021/10/13 06:07:29;;;;;;;17.42;10.82;;;9.50;99.90;;;;;;5021022;28;20452;-79
2021/10/13 06:09:55;;;;;;;15.70;10.30;;;9.50;99.90;;;;;;5023288;28;20225;-80
2021/10/13 06:12:22;;;;;;;12.93;9.10;;;9.40;99.90;;;;;;5030599;28;20455;-80
2021/10/13 06:14:50;;;;;;;14.20;9.33;;;9.40;99.90;;;;;;5028410;28;20591;-80
2021/10/13 06:17:17;;;;;;;15.87;10.10;;;9.40;99.90;;;;;;5021564;28;20485;-80
2021/10/13 06:19:44;;;;;;;15.45;9.00;;;9.60;99.90;;;;;;5020291;28;20453;-79
2021/10/13 06:22:11;;;;;;;12.73;9.20;;;9.50;99.90;;;;;;5020459;28;20234;-81
2021/10/13 06:24:39;;;;;;;15.47;10.40;;;9.60;99.90;;;;;;5020540;28;20515;-81
2021/10/13 06:27:06;;;;;;;17.13;10.57;;;9.60;99.90;;;;;;5020341;28;20785;-80
2021/10/13 06:29:33;;;;;;;17.73;10.40;;;9.70;99.90;;;;;;5019679;28;20478;-81
2021/10/13 06:32:01;;;;;;;15.00;9.40;;;9.70;99.90;;;;;;5022828;28;20458;-81
2021/10/13 06:34:28;;;;;;;17.10;10.03;;;9.70;99.90;;;;;;5022245;28;20519;-81
2021/10/13 06:36:55;;;;;;;18.47;10.27;;;9.70;99.90;;;;;;5021779;28;20493;-80
2021/10/13 06:39:22;;;;;;;14.63;10.47;;;9.70;99.90;;;;;;5020061;28;20453;-80
2021/10/13 06:41:49;;;;;;;16.80;11.00;;;9.70;99.90;;;;;;5019911;28;20471;-80
2021/10/13 06:44:16;;;;;;;15.87;9.90;;;9.70;99.90;;;;;;5020227;28;20448;-79
2021/10/13 06:46:43;;;;;;;15.63;11.00;;;9.70;99.90;;;;;;5020589;28;21017;-80
2021/10/13 06:49:11;;;;;;;14.90;10.00;;;9.90;99.90;;;;;;5021005;28;20435;-80
2021/10/13 06:51:38;;;;;;;17.73;9.63;;;10.10;99.90;;;;;;5023806;28;20461;-79
2021/10/13 06:54:04;;;;;;;14.90;10.33;;;10.20;99.90;;;;;;5029054;28;20476;-81
2021/10/13 06:56:31;;;;;;;16.10;10.33;;;9.90;99.90;;;;;;5030264;28;20474;-79
2021/10/13 06:58:58;;;;;;;13.50;8.47;;;9.90;99.90;;;;;;5022071;28;20515;-79
2021/10/13 07:01:25;;;;;;;13.03;7.53;;;9.90;99.90;;;;;;5020857;28;20458;-82
2021/10/13 07:03:52;;;;;;;21.17;10.00;;;9.90;99.90;;;;;;5021704;28;20456;-83
2021/10/13 07:06:20;;;;;;;17.23;10.10;;;9.90;99.90;;;;;;5021111;28;20528;-80
2021/10/13 07:08:47;;;;;;;15.03;9.27;;;9.80;99.90;;;;;;5021618;28;20456;-80
2021/10/13 07:11:14;;;;;;;13.83;9.63;;;9.80;99.90;;;;;;5023310;28;20494;-80
2021/10/13 07:13:41;;;;;;;14.50;8.80;;;9.80;99.90;;;;;;5028239;28;20473;-80
2021/10/13 07:16:08;;;;;;;12.20;8.80;;;9.80;99.90;;;;;;5022430;28;20484;-80
2021/10/13 07:18:35;;;;;;;12.47;7.83;;;9.90;99.90;;;;;;5022191;28;20548;-80
2021/10/13 07:21:01;;;;;;;14.00;8.73;;;10.10;99.90;;;;;;5019182;28;20449;-79
2021/10/13 07:23:30;;;;;;;14.70;8.47;;;10.00;99.90;;;;;;5019109;28;20861;-80
2021/10/13 07:25:56;;;;;;;18.13;8.67;;;9.90;99.90;;;;;;5019157;28;20487;-80
2021/10/13 07:28:25;;;;;;;13.73;9.20;;;9.80;99.90;;;;;;5020258;28;20488;-80
2021/10/13 07:30:52;;;;;;;13.07;8.70;;;9.80;99.90;;;;;;5019571;28;20489;-80
2021/10/13 07:33:19;;;;;;;11.60;8.30;;;9.70;99.90;;;;;;5018697;28;20458;-77
2021/10/13 07:35:45;;;;;;;12.50;9.27;;;9.80;99.90;;;;;;5032614;28;20496;-77
2021/10/13 07:38:14;;;;;;;16.93;8.67;;;9.80;99.90;;;;;;5016036;28;20740;-78
2021/10/13 07:40:43;;;;;;;15.40;10.50;;;9.90;99.90;;;;;;5018761;28;20508;-78
2021/10/13 07:43:17;;;;;;;12.07;8.40;;;10.00;99.90;;;;;;5018382;28;20439;-80
2021/10/13 07:45:43;;;;;;;12.77;8.50;;;10.10;99.90;;;;;;5018612;28;20473;-80
2021/10/13 07:48:10;;;;;;;15.80;9.23;;;10.20;99.90;;;;;;5019150;28;20457;-81
2021/10/13 07:50:37;;;;;;;13.43;9.40;;;10.20;99.90;;;;;;5018720;28;20908;-79
2021/10/13 07:53:05;;;;;;;15.17;9.90;;;10.50;99.90;;;;;;5018704;28;20946;-79
2021/10/13 07:55:32;;;;;;;17.90;10.10;;;10.60;99.90;;;;;;5019593;28;20477;-80
2021/10/13 07:58:00;;;;;;;12.83;8.90;;;10.80;99.90;;;;;;5019048;28;20437;-80
2021/10/13 08:00:27;;;;;;;19.87;8.73;;;10.70;99.90;;;;;;5019004;28;20461;-80
2021/10/13 08:02:54;;;;;;;15.43;8.27;;;10.80;99.90;;;;;;5021716;28;20521;-80
2021/10/13 08:05:20;;;;;;;12.40;8.07;;;10.70;99.90;;;;;;5025493;28;20462;-80
2021/10/13 08:07:48;;;;;;;11.90;8.00;;;10.80;99.90;;;;;;5019404;28;20432;-79
2021/10/13 08:10:15;;;;;;;10.63;5.93;;;11.10;99.90;;;;;;5018637;28;20502;-80
2021/10/13 08:12:42;;;;;;;12.27;7.10;;;11.20;99.90;;;;;;5020721;28;20567;-80
2021/10/13 08:15:12;;;;;;;13.93;6.90;;;10.90;99.90;;;;;;5020237;28;20477;-80
2021/10/13 08:17:39;;;;;;;11.47;6.73;;;10.80;99.90;;;;;;5019283;28;20458;-80
2021/10/13 08:20:08;;;;;;;13.20;8.43;;;10.70;99.90;;;;;;5019297;28;20449;-80
2021/10/13 08:22:34;;;;;;;12.17;7.80;;;10.70;99.90;;;;;;5018599;28;20429;-80
2021/10/13 08:25:01;;;;;;;10.20;7.70;;;10.80;99.90;;;;;;5019119;28;20474;-79
2021/10/13 08:27:28;;;;;;;12.87;7.17;;;10.90;99.90;;;;;;5032884;23;20461;-79
2021/10/13 08:29:55;;;;;;;11.83;7.50;;;11.20;99.90;;;;;;5016779;28;20452;-79
2021/10/13 08:32:23;;;;;;;12.67;7.70;;;11.40;99.90;;;;;;5018097;28;20515;-79
2021/10/13 08:34:50;;;;;;;12.20;8.43;;;11.50;99.90;;;;;;5017950;28;20461;-79
2021/10/13 08:37:17;;;;;;;13.13;7.63;;;11.40;99.90;;;;;;5017127;28;20478;-80
2021/10/13 08:39:44;;;;;;;16.77;8.57;;;11.30;99.90;;;;;;5019684;28;20424;-78
2021/10/13 08:42:11;;;;;;;14.40;8.73;;;11.30;99.90;;;;;;5019184;28;20450;-79
2021/10/13 08:44:40;;;;;;;11.90;7.87;;;11.30;99.90;;;;;;5018209;28;20802;-77
2021/10/13 08:47:10;;;;;;;18.40;9.67;;;11.10;99.90;;;;;;5017056;28;20473;-79
2021/10/13 08:49:39;;;;;;;14.37;9.63;;;11.10;99.90;;;;;;5017823;28;20461;-78
2021/10/13 08:52:09;;;;;;;22.73;11.63;;;10.90;99.90;;;;;;5017281;28;20489;-77
2021/10/13 08:54:36;;;;;;;17.67;10.80;;;10.70;99.90;;;;;;5016857;28;20458;-80
2021/10/13 08:57:15;;;;;;;16.57;9.93;;;10.70;99.90;;;;;;5016281;28;20478;-79
2021/10/13 08:59:43;;;;;;;15.50;7.63;;;10.90;99.90;;;;;;5016601;28;20416;-78
2021/10/13 09:02:11;;;;;;;15.77;10.60;;;11.10;99.90;;;;;;5016008;28;20443;-79
2021/10/13 09:04:39;;;;;;;13.70;8.63;;;11.10;99.90;;;;;;5016986;28;20795;-78
2021/10/13 09:07:06;;;;;;;20.87;12.30;;;11.10;99.90;;;;;;5017088;28;20565;-80
2021/10/13 09:09:34;;;;;;;20.63;12.90;;;11.00;99.90;;;;;;5016630;28;20828;-79
2021/10/13 09:12:01;;;;;;;19.17;10.97;;;11.10;99.90;;;;;;5016521;28;20458;-78
2021/10/13 09:14:29;;;;;;;22.53;11.37;;;11.30;99.90;;;;;;5016857;28;20467;-78
2021/10/13 09:17:01;;;;;;;23.30;12.10;;;11.30;99.90;;;;;;5016574;28;20510;-79
2021/10/13 09:19:30;;;;;;;18.63;11.60;;;11.30;99.90;;;;;;5016904;28;20515;-79
2021/10/13 09:22:00;;;;;;;18.23;10.07;;;11.40;99.90;;;;;;5017011;28;20510;-80
2021/10/13 09:24:29;;;;;;;19.90;10.53;;;11.60;99.90;;;;;;5017033;28;20472;-80
2021/10/13 09:26:59;;;;;;;16.90;9.37;;;11.60;99.90;;;;;;5018023;28;20462;-79
2021/10/13 09:29:26;;;;;;;15.07;8.07;;;11.60;99.90;;;;;;5018941;28;20557;-80
2021/10/13 09:31:58;;;;;;;14.20;9.20;;;11.50;99.90;;;;;;5016967;28;20813;-80
2021/10/13 09:34:25;;;;;;;8.33;5.40;;;11.50;99.90;;;;;;5018455;28;20432;-81
2021/10/13 09:36:58;;;;;;;9.47;5.10;;;11.50;99.90;;;;;;5017789;28;20510;-80
2021/10/13 09:39:28;;;;;;;7.47;3.90;;;11.60;99.90;;;;;;5016666;28;20511;-80
2021/10/13 09:42:07;;;;;;;8.53;4.10;;;11.70;99.90;;;;;;5017586;28;20427;-79
2021/10/13 09:44:36;;;;;;;7.70;3.93;;;11.80;99.90;;;;;;5017480;28;20544;-78
2021/10/13 09:47:05;;;;;;;7.80;3.23;;;11.80;99.90;;;;;;5016773;28;20524;-78
2021/10/13 09:49:34;;;;;;;10.40;4.00;;;11.80;99.90;;;;;;5016305;28;20925;-80
2021/10/13 09:52:07;;;;;;;10.23;4.80;;;11.90;99.90;;;;;;5015854;28;20511;-78
2021/10/13 09:54:36;;;;;;;8.70;4.03;;;11.70;99.90;;;;;;5017629;28;20453;-78
2021/10/13 09:57:19;;;;;;;10.67;4.80;;;11.90;99.90;;;;;;5016970;28;20528;-79
2021/10/13 10:00:06;;;;;;;9.47;5.20;;;12.10;99.90;;;;;;5016415;28;20499;-78
2021/10/13 10:02:36;;;;;;;8.73;4.13;;;12.10;99.90;;;;;;5015949;28;20810;-79
2021/10/13 10:05:07;;;;;;;10.40;5.80;;;12.10;99.90;;;;;;5017394;28;20540;-79
2021/10/13 10:07:36;;;;;;;12.93;7.20;;;11.90;99.90;;;;;;5016361;28;20893;-77
2021/10/13 10:10:10;;;;;;;15.83;7.30;;;11.60;99.90;;;;;;5014724;28;20496;-77
2021/10/13 10:13:07;;;;;;;17.50;7.23;;;11.50;99.90;;;;;;5016577;28;20939;-78
2021/10/13 10:15:36;;;;;;;19.00;8.30;;;11.70;99.90;;;;;;4955267;29;20411;-78
2021/10/13 10:18:18;;;;;;;13.50;7.30;;;11.80;99.90;;;;;;5002777;28;20449;-78
2021/10/13 10:20:45;;;;;;;16.70;6.63;;;12.00;99.90;;;;;;5017642;28;20431;-77
2021/10/13 10:23:33;;;;;;;13.23;5.87;;;12.40;99.90;;;;;;5016936;28;20453;-78
2021/10/13 10:26:23;;;;;;;8.30;5.17;;;12.80;99.90;;;;;;5015849;28;20425;-78
2021/10/13 10:28:56;;;;;;;8.90;6.03;;;12.60;99.90;;;;;;5017333;28;20818;-79
2021/10/13 10:31:34;;;;;;;9.23;5.07;;;12.70;99.90;;;;;;5022627;28;20794;-79
2021/10/13 10:34:12;;;;;;;13.10;5.90;;;12.70;99.90;;;;;;5021823;28;20423;-80
2021/10/13 10:37:10;;;;;;;9.67;5.90;;;12.50;99.90;;;;;;5022485;28;20473;-79
2021/10/13 10:39:57;;;;;;;7.83;5.10;;;12.50;99.90;;;;;;5023779;28;20446;-79
2021/10/13 10:42:55;;;;;;;10.33;6.07;;;12.50;99.90;;;;;;5024084;28;20429;-79
2021/10/13 10:45:23;;;;;;;10.50;6.10;;;12.50;99.90;;;;;;5025764;28;20526;-80
2021/10/13 10:48:05;;;;;;;9.50;6.53;;;12.40;99.90;;;;;;5028143;28;20440;-80
2021/10/13 10:50:36;;;;;;;10.90;6.63;;;12.20;99.90;;;;;;5032193;28;20455;-80
2021/10/13 10:53:22;;;;;;;9.10;5.73;;;12.10;99.90;;;;;;5029431;28;20905;-81
2021/10/13 10:55:50;;;;;;;6.77;4.70;;;12.20;99.90;;;;;;5022883;28;20446;-80
2021/10/13 10:58:24;;;;;;;13.57;6.37;;;12.30;99.90;;;;;;5019129;28;20493;-80
2021/10/13 11:01:04;;;;;;;14.37;8.20;;;12.30;99.90;;;;;;5019725;28;20409;-80
2021/10/13 11:03:36;;;;;;;13.83;8.10;;;12.20;99.90;;;;;;5020661;28;20544;-81
2021/10/13 11:06:14;;;;;;;14.37;8.67;;;12.20;99.90;;;;;;5020851;28;20446;-80
2021/10/13 11:09:06;;;;;;;13.03;7.97;;;11.90;99.90;;;;;;5020465;28;20746;-79
2021/10/13 11:11:35;;;;;;;12.30;6.83;;;11.90;99.90;;;;;;5005191;28;20501;-79
2021/10/13 11:14:07;;;;;;;8.30;5.73;;;12.10;99.90;;;;;;5019488;28;20414;-79
2021/10/13 11:16:36;;;;;;;10.80;6.20;;;12.30;99.90;;;;;;5019516;28;20476;-79
2021/10/13 11:19:07;;;;;;;11.10;7.00;;;12.20;99.90;;;;;;5020678;28;20514;-79
2021/10/13 11:21:34;;;;;;;13.17;5.80;;;12.30;99.90;;;;;;5020087;28;20431;-79
2021/10/13 11:24:01;;;;;;;7.30;4.50;;;12.40;99.90;;;;;;5020237;28;20488;-79
2021/10/13 11:26:28;;;;;;;7.03;4.37;;;12.70;99.90;;;;;;5018682;28;21037;-79
2021/10/13 11:28:55;;;;;;;16.40;5.33;;;12.70;99.90;;;;;;5019448;28;20449;-80
2021/10/13 11:31:23;;;;;;;7.50;4.30;;;12.80;99.90;;;;;;5019915;28;20586;-79
2021/10/13 11:33:50;;;;;;;8.80;3.93;;;12.70;99.90;;;;;;5026106;28;20428;-78
2021/10/13 11:36:18;;;;;;;9.10;3.87;;;12.80;99.90;;;;;;5023762;28;20549;-79
2021/10/13 11:38:45;;;;;;;8.10;4.20;;;12.80;99.90;;;;;;5019588;28;20451;-79
2021/10/13 11:41:13;;;;;;;10.80;5.70;;;12.80;99.90;;;;;;5020898;28;20481;-79
2021/10/13 11:43:41;;;;;;;7.40;4.60;;;12.80;99.90;;;;;;5023003;28;20461;-79
2021/10/13 11:46:09;;;;;;;9.30;5.10;;;12.60;99.90;;;;;;5019992;28;20496;-79
2021/10/13 11:48:37;;;;;;;10.33;4.93;;;12.40;99.90;;;;;;5020068;28;20462;-82
2021/10/13 11:51:10;;;;;;;7.83;4.67;;;12.30;99.90;;;;;;5019029;28;20588;-79
2021/10/13 11:53:37;;;;;;;8.03;4.07;;;12.30;99.90;;;;;;5019293;28;20505;-79
2021/10/13 11:56:10;;;;;;;8.70;3.70;;;12.20;99.90;;;;;;5020292;28;20432;-79
2021/10/13 11:58:37;;;;;;;6.50;3.27;;;12.10;99.90;;;;;;5020044;28;20445;-80
2021/10/13 12:01:04;;;;;;;7.30;3.73;;;12.10;99.90;;;;;;5020031;28;20553;-79
2021/10/13 12:03:33;;;;;;;5.73;3.10;;;12.20;99.90;;;;;;5022145;28;20477;-79
2021/10/13 12:06:02;;;;;;;5.17;2.07;;;12.20;99.90;;;;;;5019835;28;20426;-79
2021/10/13 12:08:30;;;;;;;7.10;2.10;;;12.20;99.90;;;;;;5019949;28;20465;-79
2021/10/13 12:11:05;;;;;;;5.23;2.87;;;12.40;99.90;;;;;;5021098;28;20432;-79
2021/10/13 12:13:36;;;;;;;5.40;2.10;;;12.40;99.90;;;;;;5018590;28;20434;-80
2021/10/13 12:16:05;;;;;;;3.50;1.33;;;12.50;99.90;;;;;;5020010;28;20452;-79
2021/10/13 12:18:34;;;;;;;5.40;1.80;;;12.70;99.90;;;;;;5017365;28;20461;-78
2021/10/13 12:21:13;;;;;;;2.90;0.90;;;13.00;99.90;;;;;;5018057;28;20432;-78
2021/10/13 12:23:44;;;;;;;2.60;1.00;;;13.10;99.90;;;;;;5017592;28;20445;-79
2021/10/13 12:26:16;;;;;;;3.43;1.20;;;13.20;99.90;;;;;;5016932;28;20489;-78
2021/10/13 12:28:44;;;;;;;2.40;0.97;;;13.20;99.90;;;;;;5016735;28;20451;-78
2021/10/13 12:31:14;;;;;;;5.90;2.80;;;13.20;99.90;;;;;;5017362;28;20432;-78
2021/10/13 12:33:44;;;;;;;3.80;1.10;;;13.20;99.90;;;;;;5018733;28;20427;-79
2021/10/13 12:36:16;;;;;;;3.93;1.40;;;13.20;99.90;;;;;;5017748;28;20445;-80
2021/10/13 12:38:54;;;;;;;3.03;0.93;;;13.20;99.90;;;;;;5018907;28;20418;-80
2021/10/13 12:41:22;;;;;;;4.00;1.27;;;13.30;99.90;;;;;;5017453;28;20431;-79
2021/10/13 12:43:50;;;;;;;5.10;1.73;;;13.40;99.90;;;;;;5018190;28;20817;-79
2021/10/13 12:46:25;;;;;;;7.80;1.70;;;13.40;99.90;;;;;;5017889;28;20478;-79
2021/10/13 12:48:53;;;;;;;2.83;1.20;;;13.60;99.90;;;;;;5019088;28;20541;-80
2021/10/13 12:51:22;;;;;;;2.57;0.80;;;13.40;99.90;;;;;;5018299;28;20425;-82